Skip Navigation LinksHome page > Weather > Current weather Skip Navigation Links

Current Weather

Henderson, Las Vegas, Nev.

For information only: do not use for flight planning or navigation.
Latest weather
Observation time Saturday, October 19, 2019 2:56 AM PDT
Local time Saturday, October 19, 2019 3:29 AM PDT
Flight conditions Visual Meteorological Conditions
Winds
Wind direction South-Southwest (200°)
Wind speed 9 mph
Visibility 10 mi.
Sky condition
Ceiling unlimited
Sky clear
Temperature 54°F
Dewpoint 9°F
Altimeter 29.95 in.Hg
Derived measurements
Relative humidity 16%
Density altitude 2138 ft.
Sea-level pressure 29.96 in.Hg
Remarks
Fully automated report.
Automated weather observing station with precipitation discriminator.
METAR KHND 190956Z AUTO 20008KT 10SM CLR 12/M13 A2995 RMK AO2 SLP147 T01221128

Settings

Location code

InnerDrive.Weather 4.0.6770.0 Release CLR 4.0.30319.42000
Copyright ©2018 Inner Drive Technology. All rights reserved. Portions Copyright ©1986-2018 David Braverman.

Find weather

Site navigation


Skip Navigation Links

Place info

Page info

PayPal - The safer, easier way to pay online!

Return home.

Copyright ©2019 Inner Drive Technology. Purveyors of fine, hand-crafted computer software. Page printed 2019-10-19T10:29:24 UTC.